หน้าหลัก
METAR-TAF:

METAR-TAF

ท่าอากาศยาน :

แท่นขุดเจาะน้ำมัน

Norne Fpso, นอร์เวย์

ละติจูด: 66-01-48N, ลองจิจูด: 008-04-48E, ความสูง: 10 ม.

การสังเกตสภาพอากาศปัจจุบัน

รายงานได้ทำขึ้นเมื่อ 11 นาทีที่แล้ว ณ เวลา 00:50 UTC
ลม 12 นอตจากตะวันออก/ตะวันออกเฉียงใต้
อุณหภูมิ 13°C
ความชื้น 88%
ความกดอากาศ 1016 hPa
ทัศนวิสัย 10 กม. หรือมากกว่า

METAR: ENNE 200050Z AUTO 12012KT 9999 SCT013/// BKN120/// 13/11 Q1016 W///S3

เวลา: 03:01 (01:01 UTC)

การพยากรณ์

รายงานได้ทำขึ้นเมื่อ 17 ชั่วโมงและ 1 นาทีที่แล้ว ณ เวลา 08:00 UTC
การพยากรณ์มีผลตั้งแต่วันที่ 19 ณ เวลา 09 UTC จนถึงวันที่ 19 ณ เวลา 17 UTC
ลม 10 นอตจากตะวันตก/ตะวันตกเฉียงเหนือ
ทัศนวิสัย 10 กม. หรือมากกว่า
มีเมฆกระจายเป็นบางส่วนที่ความสูง 1200 ฟุต
มีเมฆเป็นส่วนมากเว้นเป็นระยะที่ความสูง 1700 ฟุต
กำลังกลายเป็น
ตั้งแต่วันที่ 19 ณ เวลา 13 UTC จนถึงวันที่ 19 ณ เวลา 15 UTC
ลม 12 นอตจากใต้
ชั่วคราว
ตั้งแต่วันที่ 19 ณ เวลา 12 UTC จนถึงวันที่ 19 ณ เวลา 17 UTC
มีเมฆเป็นส่วนมากเว้นเป็นระยะที่ความสูง 1200 ฟุต

TAF: ENNE 190800Z 1909/1917 29010KT 9999 SCT012 BKN017 BECMG 1913/1915 18012KT TEMPO 1912/1917 BKN012

สังเกตการณ์สภาพอากาศและพยากรณ์อากาศของสนามบินมากกว่า 4000 แห่ง (รายงาน METAR และ TAF).

สถานีที่ดูได้จะแสดงไว้ด้วยจุดสีเหลืองและสีแดงบนแผนที่.

เลื่อนเมาส์ไปเหนือจุดเพื่อดูชื่อสถานี.

แล้วคลิกเพื่อดูสังเกตการณ์และการพยากรณ์สภาพอากาศ.

ในการเปลี่ยนแผนที่: คลิกที่ปุ่มสีเขียวที่มีกากบาทสีดำเพื่อซูมเข้า; ที่ปุ่มสีเขียวที่มีขีดเพื่อซูมออก; หรือที่ลูกศรสีเขียวเพื่อไปยังแผนที่ที่อยู่ติดกัน.


METAR-TAF: